sensor_id;sensor_type;location;lat;lon;timestamp;temperature;humidity
25568;DHT22;13455;51.480;7.594;2023-07-16T00:02:09;20.20;99.90
25568;DHT22;13455;51.480;7.594;2023-07-16T00:04:35;20.40;99.90
25568;DHT22;13455;51.480;7.594;2023-07-16T00:09:29;20.30;99.90
25568;DHT22;13455;51.480;7.594;2023-07-16T00:11:56;20.20;99.90
25568;DHT22;13455;51.480;7.594;2023-07-16T00:14:21;20.30;99.90
25568;DHT22;13455;51.480;7.594;2023-07-16T00:16:47;20.20;99.90
25568;DHT22;13455;51.480;7.594;2023-07-16T00:19:14;20.30;99.90
25568;DHT22;13455;51.480;7.594;2023-07-16T00:21:40;20.30;99.90
25568;DHT22;13455;51.480;7.594;2023-07-16T00:24:06;20.20;99.90
25568;DHT22;13455;51.480;7.594;2023-07-16T00:26:31;20.20;99.90
25568;DHT22;13455;51.480;7.594;2023-07-16T00:28:57;20.30;99.90
25568;DHT22;13455;51.480;7.594;2023-07-16T00:31:23;20.10;99.90
25568;DHT22;13455;51.480;7.594;2023-07-16T00:33:48;20.10;99.90
25568;DHT22;13455;51.480;7.594;2023-07-16T00:36:14;20.10;99.90
25568;DHT22;13455;51.480;7.594;2023-07-16T00:38:40;20.10;99.90
25568;DHT22;13455;51.480;7.594;2023-07-16T00:41:06;20.10;99.90
25568;DHT22;13455;51.480;7.594;2023-07-16T00:43:32;20.00;99.90
25568;DHT22;13455;51.480;7.594;2023-07-16T00:45:58;20.00;99.90
25568;DHT22;13455;51.480;7.594;2023-07-16T00:48:23;20.00;99.90
25568;DHT22;13455;51.480;7.594;2023-07-16T01:03:02;19.90;99.90
25568;DHT22;13455;51.480;7.594;2023-07-16T01:05:34;19.90;99.90
25568;DHT22;13455;51.480;7.594;2023-07-16T01:08:05;19.80;99.90
25568;DHT22;13455;51.480;7.594;2023-07-16T01:13:00;19.70;99.90
25568;DHT22;13455;51.480;7.594;2023-07-16T01:15:26;19.60;99.90
25568;DHT22;13455;51.480;7.594;2023-07-16T01:17:51;19.70;99.90
25568;DHT22;13455;51.480;7.594;2023-07-16T01:20:17;19.60;99.90
25568;DHT22;13455;51.480;7.594;2023-07-16T03:57:23;18.30;99.90
25568;DHT22;13455;51.480;7.594;2023-07-16T03:59:49;18.30;99.90
25568;DHT22;13455;51.480;7.594;2023-07-16T04:02:15;18.10;99.90
25568;DHT22;13455;51.480;7.594;2023-07-16T04:04:40;18.20;99.90
25568;DHT22;13455;51.480;7.594;2023-07-16T04:07:06;18.20;99.90
25568;DHT22;13455;51.480;7.594;2023-07-16T04:09:31;18.30;99.90
25568;DHT22;13455;51.480;7.594;2023-07-16T04:11:57;18.50;99.90
25568;DHT22;13455;51.480;7.594;2023-07-16T04:14:22;18.40;99.90
25568;DHT22;13455;51.480;7.594;2023-07-16T04:16:48;18.20;99.90
25568;DHT22;13455;51.480;7.594;2023-07-16T04:33:50;18.40;99.90
25568;DHT22;13455;51.480;7.594;2023-07-16T04:36:16;18.40;99.90
25568;DHT22;13455;51.480;7.594;2023-07-16T04:46:00;18.30;99.90
25568;DHT22;13455;51.480;7.594;2023-07-16T04:48:26;19.00;99.90
25568;DHT22;13455;51.480;7.594;2023-07-16T04:50:52;18.60;99.90
25568;DHT22;13455;51.480;7.594;2023-07-16T04:53:18;18.70;99.90
25568;DHT22;13455;51.480;7.594;2023-07-16T04:55:44;18.50;99.90
25568;DHT22;13455;51.480;7.594;2023-07-16T04:58:11;18.40;99.90
25568;DHT22;13455;51.480;7.594;2023-07-16T06:01:29;19.00;99.90
25568;DHT22;13455;51.480;7.594;2023-07-16T06:03:55;19.00;99.90
25568;DHT22;13455;51.480;7.594;2023-07-16T06:06:20;19.10;99.90
25568;DHT22;13455;51.480;7.594;2023-07-16T06:08:46;19.10;99.90
25568;DHT22;13455;51.480;7.594;2023-07-16T06:11:12;19.10;99.90
25568;DHT22;13455;51.480;7.594;2023-07-16T06:13:38;19.20;99.90
25568;DHT22;13455;51.480;7.594;2023-07-16T06:16:04;19.20;99.90
25568;DHT22;13455;51.480;7.594;2023-07-16T06:18:29;19.20;99.90
25568;DHT22;13455;51.480;7.594;2023-07-16T06:20:55;19.20;99.90
25568;DHT22;13455;51.480;7.594;2023-07-16T06:23:21;19.30;99.90
25568;DHT22;13455;51.480;7.594;2023-07-16T06:25:46;19.30;99.90
25568;DHT22;13455;51.480;7.594;2023-07-16T06:28:14;19.30;99.90
25568;DHT22;13455;51.480;7.594;2023-07-16T06:30:40;19.30;99.90
25568;DHT22;13455;51.480;7.594;2023-07-16T06:33:06;19.40;99.90
25568;DHT22;13455;51.480;7.594;2023-07-16T06:35:32;19.60;99.90
25568;DHT22;13455;51.480;7.594;2023-07-16T06:37:57;19.50;99.90
25568;DHT22;13455;51.480;7.594;2023-07-16T06:40:24;19.70;99.90
25568;DHT22;13455;51.480;7.594;2023-07-16T06:42:50;19.80;99.90
25568;DHT22;13455;51.480;7.594;2023-07-16T06:45:16;19.90;99.90
25568;DHT22;13455;51.480;7.594;2023-07-16T06:50:08;19.90;99.90
25568;DHT22;13455;51.480;7.594;2023-07-16T06:52:34;20.00;99.90
25568;DHT22;13455;51.480;7.594;2023-07-16T06:55:00;20.10;99.90
25568;DHT22;13455;51.480;7.594;2023-07-16T06:57:25;20.30;99.90
25568;DHT22;13455;51.480;7.594;2023-07-16T06:59:51;20.30;99.90
25568;DHT22;13455;51.480;7.594;2023-07-16T07:02:17;20.30;99.90
25568;DHT22;13455;51.480;7.594;2023-07-16T07:04:43;20.20;99.90
25568;DHT22;13455;51.480;7.594;2023-07-16T07:07:09;20.20;99.90
25568;DHT22;13455;51.480;7.594;2023-07-16T07:09:34;20.30;99.90
25568;DHT22;13455;51.480;7.594;2023-07-16T07:12:00;20.40;99.90
25568;DHT22;13455;51.480;7.594;2023-07-16T07:14:26;20.50;99.90
25568;DHT22;13455;51.480;7.594;2023-07-16T07:16:52;20.50;99.90
25568;DHT22;13455;51.480;7.594;2023-07-16T07:19:17;20.90;99.90
25568;DHT22;13455;51.480;7.594;2023-07-16T07:21:43;20.80;99.90
25568;DHT22;13455;51.480;7.594;2023-07-16T07:24:09;20.70;99.90
25568;DHT22;13455;51.480;7.594;2023-07-16T07:26:34;20.80;99.90
25568;DHT22;13455;51.480;7.594;2023-07-16T07:29:00;20.80;99.90
25568;DHT22;13455;51.480;7.594;2023-07-16T07:31:25;20.80;99.90
25568;DHT22;13455;51.480;7.594;2023-07-16T07:33:51;20.90;99.90
25568;DHT22;13455;51.480;7.594;2023-07-16T07:36:19;21.00;99.90
25568;DHT22;13455;51.480;7.594;2023-07-16T07:38:44;20.70;99.90
25568;DHT22;13455;51.480;7.594;2023-07-16T07:41:10;20.70;99.90
25568;DHT22;13455;51.480;7.594;2023-07-16T07:43:35;20.80;99.90
25568;DHT22;13455;51.480;7.594;2023-07-16T07:46:01;20.90;99.90
25568;DHT22;13455;51.480;7.594;2023-07-16T07:48:27;21.00;99.90
25568;DHT22;13455;51.480;7.594;2023-07-16T07:50:52;21.40;99.90
25568;DHT22;13455;51.480;7.594;2023-07-16T07:53:18;21.50;99.90
25568;DHT22;13455;51.480;7.594;2023-07-16T07:58:10;21.80;99.90
25568;DHT22;13455;51.480;7.594;2023-07-16T08:00:36;21.90;99.90
25568;DHT22;13455;51.480;7.594;2023-07-16T08:03:02;22.00;99.90
25568;DHT22;13455;51.480;7.594;2023-07-16T08:05:28;22.10;99.90
25568;DHT22;13455;51.480;7.594;2023-07-16T08:07:54;22.30;99.90
25568;DHT22;13455;51.480;7.594;2023-07-16T08:10:21;22.50;99.90
25568;DHT22;13455;51.480;7.594;2023-07-16T08:12:47;22.60;99.90
25568;DHT22;13455;51.480;7.594;2023-07-16T08:15:13;22.60;99.90
25568;DHT22;13455;51.480;7.594;2023-07-16T08:17:42;22.70;99.90
25568;DHT22;13455;51.480;7.594;2023-07-16T08:20:08;22.80;99.90
25568;DHT22;13455;51.480;7.594;2023-07-16T08:22:34;22.90;99.90
25568;DHT22;13455;51.480;7.594;2023-07-16T08:25:00;23.00;99.90
25568;DHT22;13455;51.480;7.594;2023-07-16T08:27:25;23.10;99.90
25568;DHT22;13455;51.480;7.594;2023-07-16T08:32:19;23.40;97.70
25568;DHT22;13455;51.480;7.594;2023-07-16T08:34:44;23.40;98.00
25568;DHT22;13455;51.480;7.594;2023-07-16T08:37:10;23.40;97.90
25568;DHT22;13455;51.480;7.594;2023-07-16T08:39:36;23.30;96.10
25568;DHT22;13455;51.480;7.594;2023-07-16T08:42:01;22.50;96.20
25568;DHT22;13455;51.480;7.594;2023-07-16T08:44:29;23.30;96.90
25568;DHT22;13455;51.480;7.594;2023-07-16T08:51:48;23.70;95.40
25568;DHT22;13455;51.480;7.594;2023-07-16T08:54:14;23.80;94.90
25568;DHT22;13455;51.480;7.594;2023-07-16T08:56:45;23.90;99.90
25568;DHT22;13455;51.480;7.594;2023-07-16T08:59:14;23.90;99.70
25568;DHT22;13455;51.480;7.594;2023-07-16T09:01:40;23.90;96.60
25568;DHT22;13455;51.480;7.594;2023-07-16T09:06:31;23.90;99.90
25568;DHT22;13455;51.480;7.594;2023-07-16T09:08:57;23.90;99.90
25568;DHT22;13455;51.480;7.594;2023-07-16T09:11:23;24.00;99.90
25568;DHT22;13455;51.480;7.594;2023-07-16T09:13:49;24.10;99.90
25568;DHT22;13455;51.480;7.594;2023-07-16T09:16:18;23.90;99.90
25568;DHT22;13455;51.480;7.594;2023-07-16T09:26:03;24.90;94.60
25568;DHT22;13455;51.480;7.594;2023-07-16T09:28:30;24.90;97.50
25568;DHT22;13455;51.480;7.594;2023-07-16T09:31:04;25.00;91.00
25568;DHT22;13455;51.480;7.594;2023-07-16T09:33:31;25.20;90.30
25568;DHT22;13455;51.480;7.594;2023-07-16T09:35:57;25.20;89.20
25568;DHT22;13455;51.480;7.594;2023-07-16T09:38:23;25.20;88.40
25568;DHT22;13455;51.480;7.594;2023-07-16T09:45:46;25.50;86.70
25568;DHT22;13455;51.480;7.594;2023-07-16T09:48:13;25.60;88.10
25568;DHT22;13455;51.480;7.594;2023-07-16T09:58:02;26.30;99.90
25568;DHT22;13455;51.480;7.594;2023-07-16T10:07:59;26.90;80.70
25568;DHT22;13455;51.480;7.594;2023-07-16T10:10:41;26.90;81.60
25568;DHT22;13455;51.480;7.594;2023-07-16T10:13:11;27.00;80.60
25568;DHT22;13455;51.480;7.594;2023-07-16T10:15:38;27.40;79.10
25568;DHT22;13455;51.480;7.594;2023-07-16T10:18:04;27.40;79.80
25568;DHT22;13455;51.480;7.594;2023-07-16T10:20:36;27.60;79.00
25568;DHT22;13455;51.480;7.594;2023-07-16T10:23:15;27.50;78.50
25568;DHT22;13455;51.480;7.594;2023-07-16T10:26:00;27.50;87.50
25568;DHT22;13455;51.480;7.594;2023-07-16T10:28:26;27.50;76.10
25568;DHT22;13455;51.480;7.594;2023-07-16T10:30:52;28.30;76.50
25568;DHT22;13455;51.480;7.594;2023-07-16T10:33:18;27.70;76.10
25568;DHT22;13455;51.480;7.594;2023-07-16T10:35:47;27.90;74.50
25568;DHT22;13455;51.480;7.594;2023-07-16T10:38:12;27.90;75.10
25568;DHT22;13455;51.480;7.594;2023-07-16T10:43:08;27.60;70.30
25568;DHT22;13455;51.480;7.594;2023-07-16T10:45:34;27.50;72.50
25568;DHT22;13455;51.480;7.594;2023-07-16T10:48:00;27.50;72.70
25568;DHT22;13455;51.480;7.594;2023-07-16T10:50:25;27.40;71.30
25568;DHT22;13455;51.480;7.594;2023-07-16T10:52:57;27.50;72.20
25568;DHT22;13455;51.480;7.594;2023-07-16T10:55:23;27.50;71.70
25568;DHT22;13455;51.480;7.594;2023-07-16T10:57:50;27.60;69.80
25568;DHT22;13455;51.480;7.594;2023-07-16T11:00:17;27.60;71.10
25568;DHT22;13455;51.480;7.594;2023-07-16T11:02:44;27.50;71.20
25568;DHT22;13455;51.480;7.594;2023-07-16T11:05:13;27.50;70.90
25568;DHT22;13455;51.480;7.594;2023-07-16T11:07:46;27.50;71.00
25568;DHT22;13455;51.480;7.594;2023-07-16T11:10:14;27.70;71.80
25568;DHT22;13455;51.480;7.594;2023-07-16T11:12:41;27.90;72.40
25568;DHT22;13455;51.480;7.594;2023-07-16T11:15:07;27.90;70.40
25568;DHT22;13455;51.480;7.594;2023-07-16T11:20:00;28.20;73.40
25568;DHT22;13455;51.480;7.594;2023-07-16T11:22:26;28.00;67.90
25568;DHT22;13455;51.480;7.594;2023-07-16T11:24:53;28.00;68.70
25568;DHT22;13455;51.480;7.594;2023-07-16T11:27:22;28.00;69.70
25568;DHT22;13455;51.480;7.594;2023-07-16T11:29:50;28.00;69.60
25568;DHT22;13455;51.480;7.594;2023-07-16T11:34:57;27.90;80.20
25568;DHT22;13455;51.480;7.594;2023-07-16T11:37:25;28.00;92.30
25568;DHT22;13455;51.480;7.594;2023-07-16T11:39:50;28.00;70.00
25568;DHT22;13455;51.480;7.594;2023-07-16T11:42:32;28.10;71.00
25568;DHT22;13455;51.480;7.594;2023-07-16T11:44:59;28.20;69.70
25568;DHT22;13455;51.480;7.594;2023-07-16T11:47:25;28.30;68.40
25568;DHT22;13455;51.480;7.594;2023-07-16T11:49:51;28.40;87.50
25568;DHT22;13455;51.480;7.594;2023-07-16T11:54:57;28.70;66.80
25568;DHT22;13455;51.480;7.594;2023-07-16T12:07:09;29.10;64.90
25568;DHT22;13455;51.480;7.594;2023-07-16T12:09:35;29.10;65.70
25568;DHT22;13455;51.480;7.594;2023-07-16T12:12:00;29.20;65.40
25568;DHT22;13455;51.480;7.594;2023-07-16T12:14:26;29.10;65.60
25568;DHT22;13455;51.480;7.594;2023-07-16T12:16:52;29.10;65.00
25568;DHT22;13455;51.480;7.594;2023-07-16T12:19:18;29.10;65.00
25568;DHT22;13455;51.480;7.594;2023-07-16T12:21:43;29.10;64.80
25568;DHT22;13455;51.480;7.594;2023-07-16T12:24:09;29.10;66.40
25568;DHT22;13455;51.480;7.594;2023-07-16T12:26:35;29.30;66.60
25568;DHT22;13455;51.480;7.594;2023-07-16T12:29:01;29.60;64.80
25568;DHT22;13455;51.480;7.594;2023-07-16T12:31:33;29.70;63.50
25568;DHT22;13455;51.480;7.594;2023-07-16T12:36:25;29.80;93.10
25568;DHT22;13455;51.480;7.594;2023-07-16T12:38:51;29.70;93.00
25568;DHT22;13455;51.480;7.594;2023-07-16T12:41:16;29.80;92.90
25568;DHT22;13455;51.480;7.594;2023-07-16T12:43:42;29.60;92.90
25568;DHT22;13455;51.480;7.594;2023-07-16T12:46:08;29.70;92.60
25568;DHT22;13455;51.480;7.594;2023-07-16T12:48:34;29.30;91.50
25568;DHT22;13455;51.480;7.594;2023-07-16T12:55:57;29.00;85.90
25568;DHT22;13455;51.480;7.594;2023-07-16T13:00:51;29.10;97.60
25568;DHT22;13455;51.480;7.594;2023-07-16T13:03:16;29.30;86.50
25568;DHT22;13455;51.480;7.594;2023-07-16T13:17:55;28.70;94.40
25568;DHT22;13455;51.480;7.594;2023-07-16T13:22:47;28.30;61.70
25568;DHT22;13455;51.480;7.594;2023-07-16T13:25:12;28.20;63.80
25568;DHT22;13455;51.480;7.594;2023-07-16T13:27:38;28.30;65.60
25568;DHT22;13455;51.480;7.594;2023-07-16T13:30:05;28.60;67.10
25568;DHT22;13455;51.480;7.594;2023-07-16T13:32:31;29.00;65.60
25568;DHT22;13455;51.480;7.594;2023-07-16T13:34:56;29.20;64.30
25568;DHT22;13455;51.480;7.594;2023-07-16T13:37:22;29.40;63.40
25568;DHT22;13455;51.480;7.594;2023-07-16T13:39:48;29.30;63.40
25568;DHT22;13455;51.480;7.594;2023-07-16T13:42:13;29.40;63.00
25568;DHT22;13455;51.480;7.594;2023-07-16T13:44:39;29.50;62.90
25568;DHT22;13455;51.480;7.594;2023-07-16T13:47:05;29.10;63.10
25568;DHT22;13455;51.480;7.594;2023-07-16T13:49:30;29.80;63.70
25568;DHT22;13455;51.480;7.594;2023-07-16T13:54:22;30.30;62.00
25568;DHT22;13455;51.480;7.594;2023-07-16T13:56:48;30.80;66.10
25568;DHT22;13455;51.480;7.594;2023-07-16T14:01:40;30.80;58.80
25568;DHT22;13455;51.480;7.594;2023-07-16T14:18:49;30.70;87.00
25568;DHT22;13455;51.480;7.594;2023-07-16T14:21:15;30.90;74.10
25568;DHT22;13455;51.480;7.594;2023-07-16T14:23:41;31.10;72.20
25568;DHT22;13455;51.480;7.594;2023-07-16T14:28:32;31.40;57.00
25568;DHT22;13455;51.480;7.594;2023-07-16T14:30:58;31.40;56.50
25568;DHT22;13455;51.480;7.594;2023-07-16T14:33:23;31.00;55.20
25568;DHT22;13455;51.480;7.594;2023-07-16T14:35:49;30.90;56.00
25568;DHT22;13455;51.480;7.594;2023-07-16T14:38:14;30.90;56.30
25568;DHT22;13455;51.480;7.594;2023-07-16T14:40:40;30.50;55.60
25568;DHT22;13455;51.480;7.594;2023-07-16T15:39:19;31.20;56.00
25568;DHT22;13455;51.480;7.594;2023-07-16T15:51:30;30.60;66.80
25568;DHT22;13455;51.480;7.594;2023-07-16T15:53:55;30.90;71.20
25568;DHT22;13455;51.480;7.594;2023-07-16T15:56:22;30.70;61.70
25568;DHT22;13455;51.480;7.594;2023-07-16T15:58:50;30.60;59.30
25568;DHT22;13455;51.480;7.594;2023-07-16T16:03:42;31.00;82.30
25568;DHT22;13455;51.480;7.594;2023-07-16T16:06:07;30.70;83.60
25568;DHT22;13455;51.480;7.594;2023-07-16T16:11:00;30.30;56.20
25568;DHT22;13455;51.480;7.594;2023-07-16T16:13:26;30.40;56.80
25568;DHT22;13455;51.480;7.594;2023-07-16T16:15:54;30.40;57.60
25568;DHT22;13455;51.480;7.594;2023-07-16T16:18:20;30.40;57.10
25568;DHT22;13455;51.480;7.594;2023-07-16T16:20:46;30.30;56.50
25568;DHT22;13455;51.480;7.594;2023-07-16T16:23:12;30.40;57.70
25568;DHT22;13455;51.480;7.594;2023-07-16T16:25:38;30.50;57.40
25568;DHT22;13455;51.480;7.594;2023-07-16T16:28:05;30.70;56.40
25568;DHT22;13455;51.480;7.594;2023-07-16T16:30:31;30.90;56.00
25568;DHT22;13455;51.480;7.594;2023-07-16T16:32:58;31.20;57.40
25568;DHT22;13455;51.480;7.594;2023-07-16T16:35:25;31.70;68.10
25568;DHT22;13455;51.480;7.594;2023-07-16T16:47:37;32.80;52.30
25568;DHT22;13455;51.480;7.594;2023-07-16T16:50:03;32.70;52.00
25568;DHT22;13455;51.480;7.594;2023-07-16T16:52:30;32.60;52.20
25568;DHT22;13455;51.480;7.594;2023-07-16T16:54:56;32.30;52.10
25568;DHT22;13455;51.480;7.594;2023-07-16T16:57:22;32.10;51.80
25568;DHT22;13455;51.480;7.594;2023-07-16T16:59:47;31.80;51.90
25568;DHT22;13455;51.480;7.594;2023-07-16T17:04:39;31.10;78.70
25568;DHT22;13455;51.480;7.594;2023-07-16T17:09:35;30.50;53.40
25568;DHT22;13455;51.480;7.594;2023-07-16T17:12:02;30.40;54.70
25568;DHT22;13455;51.480;7.594;2023-07-16T17:14:27;30.40;63.00
25568;DHT22;13455;51.480;7.594;2023-07-16T17:16:53;30.40;56.50
25568;DHT22;13455;51.480;7.594;2023-07-16T17:19:18;30.00;55.20
25568;DHT22;13455;51.480;7.594;2023-07-16T17:21:44;30.00;55.50
25568;DHT22;13455;51.480;7.594;2023-07-16T17:29:03;29.50;56.40
25568;DHT22;13455;51.480;7.594;2023-07-16T17:38:48;29.00;57.80
25568;DHT22;13455;51.480;7.594;2023-07-16T17:50:58;28.60;58.20
25568;DHT22;13455;51.480;7.594;2023-07-16T17:53:24;28.50;58.90
25568;DHT22;13455;51.480;7.594;2023-07-16T17:58:17;28.20;60.00
25568;DHT22;13455;51.480;7.594;2023-07-16T18:15:21;27.60;61.30
25568;DHT22;13455;51.480;7.594;2023-07-16T18:20:13;27.20;62.40
25568;DHT22;13455;51.480;7.594;2023-07-16T18:22:39;27.00;62.30
25568;DHT22;13455;51.480;7.594;2023-07-16T18:30:06;26.60;92.20
25568;DHT22;13455;51.480;7.594;2023-07-16T18:32:32;26.60;65.60
25568;DHT22;13455;51.480;7.594;2023-07-16T18:34:57;26.60;73.00
25568;DHT22;13455;51.480;7.594;2023-07-16T18:37:23;26.20;70.80
25568;DHT22;13455;51.480;7.594;2023-07-16T18:39:50;26.30;77.80
25568;DHT22;13455;51.480;7.594;2023-07-16T18:42:19;26.10;66.60
25568;DHT22;13455;51.480;7.594;2023-07-16T18:44:44;26.00;66.80
25568;DHT22;13455;51.480;7.594;2023-07-16T18:47:11;25.90;67.50
25568;DHT22;13455;51.480;7.594;2023-07-16T18:52:04;25.80;67.90
25568;DHT22;13455;51.480;7.594;2023-07-16T18:54:30;25.60;69.20
25568;DHT22;13455;51.480;7.594;2023-07-16T18:56:56;25.60;69.10
25568;DHT22;13455;51.480;7.594;2023-07-16T18:59:21;25.40;69.00
25568;DHT22;13455;51.480;7.594;2023-07-16T19:01:48;25.30;70.00
25568;DHT22;13455;51.480;7.594;2023-07-16T19:06:39;25.10;70.00
25568;DHT22;13455;51.480;7.594;2023-07-16T19:13:57;24.80;71.70
25568;DHT22;13455;51.480;7.594;2023-07-16T19:16:23;24.70;71.90
25568;DHT22;13455;51.480;7.594;2023-07-16T19:18:49;24.70;72.50
25568;DHT22;13455;51.480;7.594;2023-07-16T19:21:14;24.50;72.40
25568;DHT22;13455;51.480;7.594;2023-07-16T19:23:40;24.50;73.30
25568;DHT22;13455;51.480;7.594;2023-07-16T19:26:05;24.40;73.60
25568;DHT22;13455;51.480;7.594;2023-07-16T19:28:31;24.30;73.80
25568;DHT22;13455;51.480;7.594;2023-07-16T19:30:56;24.20;73.80
25568;DHT22;13455;51.480;7.594;2023-07-16T19:33:22;24.10;74.40
25568;DHT22;13455;51.480;7.594;2023-07-16T19:35:48;24.10;74.70
25568;DHT22;13455;51.480;7.594;2023-07-16T19:45:38;23.70;75.80
25568;DHT22;13455;51.480;7.594;2023-07-16T19:50:33;23.40;77.90
25568;DHT22;13455;51.480;7.594;2023-07-16T19:52:59;23.40;78.80
25568;DHT22;13455;51.480;7.594;2023-07-16T20:00:17;23.30;90.30
25568;DHT22;13455;51.480;7.594;2023-07-16T20:02:43;23.10;81.20
25568;DHT22;13455;51.480;7.594;2023-07-16T20:05:09;23.00;81.90
25568;DHT22;13455;51.480;7.594;2023-07-16T20:07:34;23.20;83.40
25568;DHT22;13455;51.480;7.594;2023-07-16T20:10:05;22.90;82.70
25568;DHT22;13455;51.480;7.594;2023-07-16T20:12:31;22.90;82.80
25568;DHT22;13455;51.480;7.594;2023-07-16T20:14:57;23.00;88.60
25568;DHT22;13455;51.480;7.594;2023-07-16T20:17:23;23.00;90.30
25568;DHT22;13455;51.480;7.594;2023-07-16T20:19:49;23.00;99.90
25568;DHT22;13455;51.480;7.594;2023-07-16T20:22:14;22.80;97.40
25568;DHT22;13455;51.480;7.594;2023-07-16T20:24:40;22.80;99.90
25568;DHT22;13455;51.480;7.594;2023-07-16T20:27:06;22.80;99.90
25568;DHT22;13455;51.480;7.594;2023-07-16T20:29:31;22.80;95.30
25568;DHT22;13455;51.480;7.594;2023-07-16T20:46:43;22.30;88.20
25568;DHT22;13455;51.480;7.594;2023-07-16T21:08:38;22.00;91.10
25568;DHT22;13455;51.480;7.594;2023-07-16T21:11:03;21.90;91.70
25568;DHT22;13455;51.480;7.594;2023-07-16T21:13:29;21.90;91.60
25568;DHT22;13455;51.480;7.594;2023-07-16T21:18:21;21.80;91.60
25568;DHT22;13455;51.480;7.594;2023-07-16T22:19:24;21.10;92.90
25568;DHT22;13455;51.480;7.594;2023-07-16T22:21:49;21.10;93.30
25568;DHT22;13455;51.480;7.594;2023-07-16T22:46:09;20.40;96.30
25568;DHT22;13455;51.480;7.594;2023-07-16T22:48:38;20.40;96.60
25568;DHT22;13455;51.480;7.594;2023-07-16T22:51:04;20.30;97.10
25568;DHT22;13455;51.480;7.594;2023-07-16T23:32:30;19.90;99.90
25568;DHT22;13455;51.480;7.594;2023-07-16T23:47:06;19.60;99.90
25568;DHT22;13455;51.480;7.594;2023-07-16T23:49:31;19.60;99.90
25568;DHT22;13455;51.480;7.594;2023-07-16T23:51:57;19.50;99.90
25568;DHT22;13455;51.480;7.594;2023-07-16T23:54:23;19.40;99.90
25568;DHT22;13455;51.480;7.594;2023-07-16T23:56:52;19.30;99.90
25568;DHT22;13455;51.480;7.594;2023-07-16T23:59:18;19.30;99.90
